Cow Island, Louisiana
Current Conditions -  °F | °C
As of 1:30 AM on Thursday 23 Oct 2014 (Local Time) from KIYA Reporting Station
Clear Clear  
Wind Chill: 57°   Ceiling: Unl
Heat Index: 57°   Visibility: 10mi
Dew Point: 53°   Wind: 0mph
Humidity: 87%   Direction: NA
Pressure: 30.08"   Gusts: NA
Location:  29.8955°N, 92.208°W
Report Text: KIYA 230630Z AUTO 00000KT 10SM CLR 14/12 A3008 RMK AO2 T01390118
Loading
Personal Weather Stations






























Interactive Weather Map
Tropical Storm Tracking
New forecast layout! Learn more

10-Day Weather Forecast

Advertisements
Track Severe Weather on mobile